Time;durP1;ratioP1;P1;durP2;ratioP2;P2;SDS_P1;SDS_P2;PMS_P1;PMS_P2;Temp;Humidity;BMP_temperature;BMP_pressure;BME280_temperature;BME280_humidity;BME280_pressure;Samples;Min_cycle;Max_cycle;Signal;HPM_P1;HPM_P2
2023/02/10 00:01:55;;;;;;;20.52;13.15;;;4.90;95.10;;;;;;5024452;28;20246;-84
2023/02/10 00:04:23;;;;;;;16.08;12.30;;;4.90;95.30;;;;;;5016782;28;20226;-83
2023/02/10 00:06:50;;;;;;;16.98;13.32;;;4.90;95.40;;;;;;5011027;28;20229;-84
2023/02/10 00:09:17;;;;;;;18.75;13.25;;;5.00;95.50;;;;;;5034283;28;20314;-83
2023/02/10 00:12:00;;;;;;;16.70;12.90;;;5.00;95.60;;;;;;5031609;28;20221;-84
2023/02/10 00:14:31;;;;;;;18.80;15.32;;;5.00;95.60;;;;;;5042912;28;20279;-85
2023/02/10 00:16:59;;;;;;;18.05;14.38;;;5.00;95.60;;;;;;5030104;28;20655;-84
2023/02/10 00:19:30;;;;;;;17.80;14.23;;;4.90;95.60;;;;;;5034275;28;20221;-83
2023/02/10 00:21:57;;;;;;;17.23;13.40;;;4.90;95.70;;;;;;5033855;28;20225;-83
2023/02/10 00:24:25;;;;;;;20.42;13.27;;;4.90;95.70;;;;;;5032732;28;20221;-84
2023/02/10 00:26:53;;;;;;;19.77;13.52;;;4.90;95.80;;;;;;5023478;28;20229;-84
2023/02/10 00:29:20;;;;;;;14.90;12.00;;;4.90;95.80;;;;;;5031509;28;20507;-84
2023/02/10 00:31:48;;;;;;;17.30;12.15;;;4.90;95.80;;;;;;5031416;28;20263;-83
2023/02/10 00:34:18;;;;;;;18.23;12.65;;;4.90;95.90;;;;;;5034334;28;20249;-84
2023/02/10 00:36:45;;;;;;;15.63;12.00;;;4.90;95.90;;;;;;5025222;28;20217;-84
2023/02/10 00:39:14;;;;;;;21.67;14.40;;;4.90;96.00;;;;;;5032638;28;20257;-83
2023/02/10 00:41:42;;;;;;;16.77;13.70;;;4.90;96.00;;;;;;5030970;28;20247;-83
2023/02/10 00:44:09;;;;;;;16.95;13.63;;;4.90;96.00;;;;;;5032110;28;20229;-84
2023/02/10 00:46:37;;;;;;;20.30;15.00;;;5.00;96.20;;;;;;5032779;28;20213;-84
2023/02/10 00:49:06;;;;;;;18.23;12.80;;;5.00;96.20;;;;;;5034180;28;20229;-84
2023/02/10 00:51:33;;;;;;;17.00;12.40;;;5.00;96.20;;;;;;5034230;28;20229;-84
2023/02/10 00:54:00;;;;;;;13.95;11.65;;;5.00;96.30;;;;;;5032774;28;20307;-84
2023/02/10 00:56:27;;;;;;;17.92;13.20;;;5.00;96.30;;;;;;5033360;28;20232;-84
2023/02/10 00:58:54;;;;;;;16.70;13.10;;;5.00;96.30;;;;;;5032239;28;20225;-84
2023/02/10 01:01:21;;;;;;;19.33;13.90;;;5.00;96.30;;;;;;5033285;28;20240;-84
2023/02/10 01:03:48;;;;;;;19.73;13.02;;;5.00;96.40;;;;;;5032430;28;20240;-82
2023/02/10 01:06:17;;;;;;;22.60;14.60;;;5.10;96.50;;;;;;5007862;28;20233;-83
2023/02/10 01:08:47;;;;;;;14.75;12.32;;;5.10;96.60;;;;;;5033591;28;20368;-81
2023/02/10 01:11:16;;;;;;;15.93;13.43;;;5.10;96.60;;;;;;5032730;28;20229;-84
2023/02/10 01:13:43;;;;;;;18.15;12.30;;;5.10;96.60;;;;;;5033382;28;20221;-84
2023/02/10 01:16:13;;;;;;;17.17;13.30;;;5.10;96.70;;;;;;5030535;28;20228;-84
2023/02/10 01:21:28;;;;;;;19.10;13.63;;;5.00;96.70;;;;;;4971521;22;20221;-84
2023/02/10 01:23:57;;;;;;;18.73;13.60;;;5.00;96.80;;;;;;4972445;28;20232;-85
2023/02/10 01:26:24;;;;;;;21.65;13.80;;;5.00;96.90;;;;;;5002032;28;20217;-85
2023/02/10 01:28:51;;;;;;;18.35;13.50;;;5.00;97.00;;;;;;4966092;28;20298;-84
2023/02/10 01:31:20;;;;;;;15.90;13.70;;;5.00;97.20;;;;;;4968839;28;20232;-84
2023/02/10 01:33:48;;;;;;;15.75;12.85;;;4.90;97.20;;;;;;4987894;28;20225;-84
2023/02/10 01:36:17;;;;;;;19.13;13.13;;;4.90;97.30;;;;;;4960921;28;20232;-84
2023/02/10 01:38:46;;;;;;;19.65;13.98;;;4.90;97.40;;;;;;4930905;28;20228;-84
2023/02/10 01:41:14;;;;;;;18.23;14.23;;;4.90;97.50;;;;;;4929190;28;20262;-77
2023/02/10 01:44:00;;;;;;;16.50;13.90;;;4.90;97.60;;;;;;4929970;28;20294;-78
2023/02/10 01:46:27;;;;;;;23.67;15.73;;;4.90;97.70;;;;;;4966088;28;20313;-78
2023/02/10 01:48:59;;;;;;;21.15;15.00;;;4.90;97.80;;;;;;5002662;28;20225;-77
2023/02/10 01:51:34;;;;;;;19.67;13.10;;;4.80;97.90;;;;;;5007999;28;20229;-85
2023/02/10 01:54:26;;;;;;;18.83;14.95;;;4.80;98.10;;;;;;5009447;28;20225;-78
2023/02/10 01:56:54;;;;;;;17.95;13.65;;;4.80;98.20;;;;;;5029135;28;20303;-78
2023/02/10 01:59:22;;;;;;;19.27;14.15;;;4.80;98.30;;;;;;5032852;28;20236;-78
2023/02/10 02:01:53;;;;;;;18.20;13.60;;;4.80;98.50;;;;;;5022698;28;20232;-78
2023/02/10 02:04:20;;;;;;;20.80;13.00;;;4.80;98.60;;;;;;5028963;28;20221;-77
2023/02/10 02:06:48;;;;;;;24.35;15.85;;;4.80;98.70;;;;;;4993070;28;20337;-77
2023/02/10 02:09:16;;;;;;;17.98;15.15;;;4.80;98.80;;;;;;4949021;28;20220;-78
2023/02/10 02:11:55;;;;;;;22.13;16.30;;;4.80;98.80;;;;;;4946073;28;20282;-84
2023/02/10 02:14:32;;;;;;;17.98;14.27;;;4.80;99.30;;;;;;5028822;28;20578;-84
2023/02/10 02:17:09;;;;;;;19.27;13.90;;;4.70;99.00;;;;;;4965187;28;20231;-77
2023/02/10 02:23:15;;;;;;;20.63;13.85;;;4.80;99.20;;;;;;4958238;28;20305;-83
2023/02/10 02:26:00;;;;;;;21.45;15.57;;;4.70;99.30;;;;;;4955669;29;20682;-83
2023/02/10 02:28:33;;;;;;;21.30;14.27;;;4.70;99.40;;;;;;4943852;28;20578;-76
2023/02/10 02:31:26;;;;;;;20.13;13.93;;;4.70;99.50;;;;;;4986112;28;20299;-77
2023/02/10 02:33:57;;;;;;;23.70;15.95;;;4.70;99.60;;;;;;4915429;28;20229;-77
2023/02/10 02:36:28;;;;;;;23.17;14.20;;;4.70;99.70;;;;;;4916737;28;20225;-77
2023/02/10 02:39:01;;;;;;;21.42;14.38;;;4.70;99.80;;;;;;4925508;28;20230;-77
2023/02/10 02:41:29;;;;;;;24.00;15.48;;;4.70;99.90;;;;;;4954068;28;20237;-77
2023/02/10 02:43:57;;;;;;;15.80;14.00;;;4.70;99.90;;;;;;4934938;28;20247;-77
2023/02/10 02:46:35;;;;;;;25.10;16.77;;;4.60;99.90;;;;;;4933126;28;20295;-78
2023/02/10 02:49:14;;;;;;;26.85;16.65;;;4.60;99.90;;;;;;4915396;29;20229;-77
2023/02/10 02:51:47;;;;;;;19.90;14.02;;;4.60;99.90;;;;;;4917165;28;20225;-77
2023/02/10 02:54:23;;;;;;;22.27;17.67;;;4.60;99.90;;;;;;4915206;29;20226;-77
2023/02/10 02:56:57;;;;;;;25.30;17.83;;;4.60;99.90;;;;;;4915937;29;20568;-77
2023/02/10 02:59:31;;;;;;;24.50;17.33;;;4.60;99.90;;;;;;4916460;29;20229;-77
2023/02/10 03:02:01;;;;;;;18.52;14.75;;;4.60;99.90;;;;;;4915793;29;20663;-77
2023/02/10 03:04:32;;;;;;;21.98;15.25;;;4.60;99.90;;;;;;4916835;28;20308;-84
2023/02/10 03:07:02;;;;;;;20.67;15.35;;;4.60;99.90;;;;;;4917039;28;20226;-84
2023/02/10 03:09:30;;;;;;;23.27;17.60;;;4.60;99.90;;;;;;4916652;28;20245;-84
2023/02/10 03:11:57;;;;;;;27.42;16.58;;;4.60;99.90;;;;;;4915742;29;20648;-84
2023/02/10 03:14:25;;;;;;;24.67;16.95;;;4.60;99.90;;;;;;4918808;28;20312;-77
2023/02/10 03:16:52;;;;;;;25.75;17.60;;;4.60;99.90;;;;;;4918920;28;20252;-84
2023/02/10 03:19:19;;;;;;;22.55;16.50;;;4.60;99.90;;;;;;4915525;28;20271;-77
2023/02/10 03:21:48;;;;;;;24.67;17.27;;;4.60;99.90;;;;;;4915817;29;20253;-77
2023/02/10 03:24:16;;;;;;;24.23;18.08;;;4.70;99.90;;;;;;4979575;28;20296;-83
2023/02/10 03:26:44;;;;;;;19.80;16.35;;;4.70;99.90;;;;;;5015551;28;20233;-84
2023/02/10 03:29:12;;;;;;;24.58;18.90;;;4.70;99.90;;;;;;5014374;28;20241;-78
2023/02/10 03:31:39;;;;;;;28.10;17.52;;;4.70;99.90;;;;;;5014953;28;20313;-78
2023/02/10 03:34:06;;;;;;;23.33;18.33;;;4.70;99.90;;;;;;5014063;28;20260;-85
2023/02/10 03:36:34;;;;;;;29.05;18.98;;;4.70;99.90;;;;;;5015452;28;20229;-85
2023/02/10 03:39:03;;;;;;;28.60;19.60;;;4.80;99.90;;;;;;5018393;28;20229;-84
2023/02/10 03:41:30;;;;;;;30.60;21.45;;;4.80;99.90;;;;;;5022814;28;20283;-85
2023/02/10 03:43:57;;;;;;;33.63;21.63;;;4.80;99.90;;;;;;5016415;28;20249;-85
2023/02/10 03:46:24;;;;;;;23.17;18.30;;;4.80;99.90;;;;;;5015804;28;21122;-78
2023/02/10 03:48:51;;;;;;;28.05;18.92;;;4.80;99.90;;;;;;5010424;28;20218;-86
2023/02/10 03:51:18;;;;;;;29.77;19.85;;;4.80;99.90;;;;;;5022136;28;20230;-78
2023/02/10 03:53:45;;;;;;;26.42;19.58;;;4.80;99.90;;;;;;5016401;28;20222;-85
2023/02/10 03:56:14;;;;;;;32.25;20.30;;;4.90;99.90;;;;;;5014504;28;20684;-85
2023/02/10 03:58:41;;;;;;;28.35;20.73;;;4.80;99.90;;;;;;5015192;28;20230;-78
2023/02/10 04:01:14;;;;;;;34.90;22.73;;;4.80;99.90;;;;;;5013217;28;20583;-79
2023/02/10 04:03:41;;;;;;;26.83;20.35;;;4.80;99.90;;;;;;5014428;28;20558;-85
2023/02/10 04:06:09;;;;;;;29.95;21.85;;;4.80;99.90;;;;;;5014963;28;20333;-85
2023/02/10 04:08:36;;;;;;;29.90;22.33;;;4.80;99.90;;;;;;5014869;28;20222;-78
2023/02/10 04:11:04;;;;;;;36.50;23.63;;;4.80;99.90;;;;;;5013362;28;20226;-78
2023/02/10 04:13:32;;;;;;;34.75;23.40;;;4.80;99.90;;;;;;5014610;28;20234;-85
2023/02/10 04:16:04;;;;;;;49.38;30.17;;;4.80;99.90;;;;;;5014747;28;20305;-78
2023/02/10 04:18:31;;;;;;;27.85;21.98;;;4.80;99.90;;;;;;5014033;28;20256;-78
2023/02/10 04:21:00;;;;;;;35.53;22.95;;;4.80;99.90;;;;;;5012589;28;20234;-78
2023/02/10 04:23:28;;;;;;;33.22;23.48;;;4.80;99.90;;;;;;5012725;28;20265;-78
2023/02/10 04:25:55;;;;;;;29.52;20.23;;;4.80;99.90;;;;;;5015182;28;20272;-78
2023/02/10 04:28:22;;;;;;;32.33;21.92;;;4.80;99.90;;;;;;5016145;28;20316;-85
2023/02/10 04:30:53;;;;;;;31.17;20.77;;;4.80;99.90;;;;;;5018436;28;20241;-84
2023/02/10 04:33:20;;;;;;;34.05;23.10;;;4.80;99.90;;;;;;5017799;28;20225;-77
2023/02/10 04:35:48;;;;;;;33.40;23.80;;;4.80;99.90;;;;;;5016117;28;20222;-76
2023/02/10 04:38:16;;;;;;;37.03;25.63;;;4.80;99.90;;;;;;5012687;28;20240;-77
2023/02/10 04:40:43;;;;;;;34.33;24.02;;;4.80;99.90;;;;;;5012171;28;20256;-76
2023/02/10 04:43:10;;;;;;;34.28;22.40;;;4.90;99.90;;;;;;5016958;28;20308;-77
2023/02/10 04:45:37;;;;;;;34.65;22.90;;;4.90;99.90;;;;;;5012360;28;20218;-77
2023/02/10 04:48:06;;;;;;;44.67;24.25;;;4.90;99.90;;;;;;5012878;28;20272;-77
2023/02/10 04:50:33;;;;;;;32.95;24.00;;;4.90;99.90;;;;;;5012294;28;20233;-77
2023/02/10 04:53:00;;;;;;;33.28;23.38;;;4.90;99.90;;;;;;5018951;28;20222;-83
2023/02/10 04:55:27;;;;;;;34.90;23.38;;;5.00;99.90;;;;;;5018926;28;20288;-77
2023/02/10 04:57:54;;;;;;;32.13;22.40;;;5.00;99.90;;;;;;5019640;28;20222;-83
2023/02/10 05:00:22;;;;;;;35.67;23.05;;;5.10;99.90;;;;;;5026656;28;20229;-83
2023/02/10 05:02:49;;;;;;;36.65;26.40;;;5.10;99.90;;;;;;5020509;28;20261;-77
2023/02/10 05:05:18;;;;;;;34.90;24.05;;;5.10;99.90;;;;;;5011756;28;20292;-77
2023/02/10 05:07:45;;;;;;;38.78;24.92;;;5.10;99.90;;;;;;5013643;28;20234;-82
2023/02/10 05:10:13;;;;;;;43.22;27.02;;;5.10;99.90;;;;;;5013235;28;20252;-78
2023/02/10 05:12:40;;;;;;;41.40;29.08;;;5.00;99.90;;;;;;5015722;28;20660;-76
2023/02/10 05:15:08;;;;;;;36.72;26.35;;;5.00;99.90;;;;;;5016367;28;20218;-83
2023/02/10 05:17:35;;;;;;;42.30;27.15;;;5.10;99.90;;;;;;5015790;28;20718;-84
2023/02/10 05:20:03;;;;;;;43.63;28.30;;;5.10;99.90;;;;;;4934547;28;1384307;-77
2023/02/10 05:22:31;;;;;;;36.67;26.40;;;5.10;99.90;;;;;;4964946;28;20680;-83
2023/02/10 05:24:58;;;;;;;42.22;28.20;;;5.10;99.90;;;;;;5017373;28;20649;-83
2023/02/10 05:27:26;;;;;;;35.72;25.52;;;5.10;99.90;;;;;;5013006;28;20232;-77
2023/02/10 05:29:53;;;;;;;37.47;27.40;;;5.10;99.90;;;;;;5013357;28;20230;-76
2023/02/10 05:32:20;;;;;;;42.10;29.08;;;5.10;99.90;;;;;;5013693;28;20684;-76
2023/02/10 05:34:47;;;;;;;37.78;27.02;;;5.10;99.90;;;;;;5015717;28;20214;-83
2023/02/10 05:37:14;;;;;;;42.67;26.38;;;5.10;99.90;;;;;;5018427;28;20230;-83
2023/02/10 05:39:42;;;;;;;37.03;28.38;;;5.10;99.90;;;;;;5015589;28;20222;-83
2023/02/10 05:42:10;;;;;;;38.17;26.75;;;5.00;99.90;;;;;;5012894;28;20230;-76
2023/02/10 05:44:41;;;;;;;36.40;25.75;;;5.00;99.90;;;;;;5012640;28;20241;-76
2023/02/10 05:47:08;;;;;;;35.63;25.75;;;5.00;99.90;;;;;;5008626;28;20641;-76
2023/02/10 05:49:35;;;;;;;40.08;26.45;;;5.00;99.90;;;;;;5012010;28;20283;-77
2023/02/10 05:52:02;;;;;;;39.13;26.30;;;5.00;99.90;;;;;;5011987;28;20245;-77
2023/02/10 05:54:30;;;;;;;40.10;27.65;;;5.00;99.90;;;;;;5012424;28;20537;-77
2023/02/10 05:56:58;;;;;;;45.78;29.10;;;4.90;99.90;;;;;;5012884;28;20225;-76
2023/02/10 05:59:26;;;;;;;39.20;26.75;;;4.90;99.90;;;;;;5015739;28;20229;-83
2023/02/10 06:01:53;;;;;;;43.83;30.50;;;4.90;99.90;;;;;;5018555;28;20667;-83
2023/02/10 06:04:20;;;;;;;37.00;28.02;;;4.90;99.90;;;;;;5017236;28;20233;-83
2023/02/10 06:06:47;;;;;;;38.90;27.85;;;4.90;99.90;;;;;;5016775;28;20226;-77
2023/02/10 06:09:16;;;;;;;45.28;32.25;;;4.90;99.90;;;;;;5016061;28;20256;-84
2023/02/10 06:11:44;;;;;;;51.05;29.63;;;4.90;99.90;;;;;;5016470;28;20284;-84
2023/02/10 06:14:12;;;;;;;42.13;29.20;;;4.80;99.90;;;;;;5017197;28;20266;-77
2023/02/10 06:16:39;;;;;;;41.25;28.02;;;4.90;99.90;;;;;;5015427;28;20750;-77
2023/02/10 06:19:06;;;;;;;41.85;28.40;;;4.90;99.90;;;;;;5015950;28;20595;-84
2023/02/10 06:21:33;;;;;;;40.85;27.42;;;4.90;99.90;;;;;;5015628;28;20307;-84
2023/02/10 06:24:00;;;;;;;40.05;28.23;;;4.90;99.90;;;;;;5016212;28;20234;-84
2023/02/10 06:26:28;;;;;;;37.08;28.85;;;4.90;99.90;;;;;;5015038;28;20226;-83
2023/02/10 06:28:55;;;;;;;40.20;27.90;;;4.90;99.90;;;;;;5016512;28;20233;-84
2023/02/10 06:31:25;;;;;;;43.72;29.45;;;4.90;99.90;;;;;;5016051;28;20241;-82
2023/02/10 06:33:52;;;;;;;39.88;28.75;;;5.00;99.90;;;;;;5016265;28;20221;-84
2023/02/10 06:36:19;;;;;;;36.03;27.92;;;5.00;99.90;;;;;;5016221;28;20226;-76
2023/02/10 06:38:47;;;;;;;43.60;29.85;;;5.00;99.90;;;;;;5014515;28;20300;-77
2023/02/10 06:41:15;;;;;;;47.65;27.92;;;5.00;99.90;;;;;;5015703;28;20241;-77
2023/02/10 06:43:42;;;;;;;39.85;28.52;;;5.00;99.90;;;;;;5014830;28;20325;-83
2023/02/10 06:46:15;;;;;;;44.50;29.67;;;5.00;99.90;;;;;;5016802;28;20755;-84
2023/02/10 06:48:43;;;;;;;37.95;26.33;;;5.00;99.90;;;;;;5007474;28;20836;-77
2023/02/10 06:51:10;;;;;;;40.80;25.83;;;5.00;99.90;;;;;;5028752;28;20591;-84
2023/02/10 06:53:38;;;;;;;36.67;26.48;;;5.00;99.90;;;;;;5015656;28;20248;-83
2023/02/10 06:56:05;;;;;;;35.63;25.73;;;5.00;99.90;;;;;;5015894;28;20229;-77
2023/02/10 06:58:32;;;;;;;41.08;28.13;;;5.00;99.90;;;;;;5014851;28;20226;-84
2023/02/10 07:01:00;;;;;;;33.75;24.45;;;5.00;99.90;;;;;;5015295;28;20230;-77
2023/02/10 07:03:27;;;;;;;35.42;24.23;;;5.00;99.90;;;;;;5015040;28;20579;-77
2023/02/10 07:05:56;;;;;;;39.85;25.92;;;5.00;99.90;;;;;;5015135;28;20276;-77
2023/02/10 07:08:24;;;;;;;39.88;26.92;;;5.00;99.90;;;;;;5015601;28;20226;-77
2023/02/10 07:10:51;;;;;;;37.03;27.27;;;5.00;99.90;;;;;;5014545;28;20233;-84
2023/02/10 07:13:21;;;;;;;47.85;27.33;;;5.00;99.90;;;;;;5017637;28;20229;-84
2023/02/10 07:15:49;;;;;;;41.42;27.90;;;5.10;99.90;;;;;;5016686;28;20226;-84
2023/02/10 07:18:16;;;;;;;42.88;30.58;;;5.10;99.90;;;;;;5018328;28;20284;-84
2023/02/10 07:20:43;;;;;;;39.97;28.08;;;5.00;99.90;;;;;;5019919;28;20265;-84
2023/02/10 07:23:11;;;;;;;39.55;26.63;;;5.00;99.90;;;;;;5018078;28;20264;-84
2023/02/10 07:25:38;;;;;;;35.30;23.95;;;5.10;99.90;;;;;;5015742;28;20218;-84
2023/02/10 07:28:07;;;;;;;31.55;24.17;;;5.10;99.90;;;;;;5018168;28;20226;-76
2023/02/10 07:30:45;;;;;;;34.42;24.10;;;5.10;99.90;;;;;;5016547;28;20237;-83
2023/02/10 07:33:12;;;;;;;38.90;26.25;;;5.10;99.90;;;;;;5017426;28;20250;-77
2023/02/10 07:35:40;;;;;;;40.38;27.55;;;5.10;99.90;;;;;;5014159;28;20641;-77
2023/02/10 07:38:07;;;;;;;38.25;26.90;;;5.10;99.90;;;;;;5016127;28;20679;-77
2023/02/10 07:40:35;;;;;;;40.45;26.70;;;5.20;99.90;;;;;;5016265;28;20284;-78
2023/02/10 07:43:02;;;;;;;38.28;26.90;;;5.20;99.90;;;;;;5015844;28;20226;-78
2023/02/10 07:45:32;;;;;;;40.35;25.88;;;5.30;99.90;;;;;;5018774;28;20201;-78
2023/02/10 07:47:59;;;;;;;30.48;23.05;;;5.30;99.90;;;;;;5014342;28;20224;-77
2023/02/10 07:50:28;;;;;;;33.60;24.05;;;5.40;99.90;;;;;;5015941;28;20318;-84
2023/02/10 07:52:56;;;;;;;39.40;24.15;;;5.40;99.90;;;;;;5019143;28;20318;-84
2023/02/10 07:55:23;;;;;;;42.00;26.42;;;5.30;99.90;;;;;;5017644;28;20230;-83
2023/02/10 07:57:55;;;;;;;40.72;26.40;;;5.40;99.90;;;;;;5019507;28;20233;-77
2023/02/10 08:00:22;;;;;;;36.85;25.20;;;5.40;99.90;;;;;;5015952;28;20300;-83
2023/02/10 08:02:49;;;;;;;32.80;24.15;;;5.40;99.90;;;;;;5019626;28;20249;-84
2023/02/10 08:05:17;;;;;;;42.60;26.60;;;5.50;99.90;;;;;;5015409;28;20218;-83
2023/02/10 08:07:46;;;;;;;41.50;28.98;;;5.50;99.90;;;;;;5015488;28;20238;-77
2023/02/10 08:10:16;;;;;;;33.20;24.17;;;5.50;99.90;;;;;;5020846;28;20222;-84
2023/02/10 08:12:43;;;;;;;44.03;26.77;;;5.50;99.90;;;;;;5020765;28;20295;-84
2023/02/10 08:15:12;;;;;;;37.50;24.38;;;5.60;99.90;;;;;;5017721;28;20296;-83
2023/02/10 08:17:39;;;;;;;39.33;26.30;;;5.50;99.90;;;;;;5014551;28;20316;-84
2023/02/10 08:20:09;;;;;;;39.08;25.63;;;5.60;99.90;;;;;;5014733;28;20226;-83
2023/02/10 08:22:36;;;;;;;35.17;23.85;;;5.60;99.90;;;;;;5017307;28;20725;-85
2023/02/10 08:25:03;;;;;;;37.75;26.33;;;5.60;99.90;;;;;;5022398;28;20817;-83
2023/02/10 08:27:31;;;;;;;31.40;23.38;;;5.70;99.90;;;;;;5014578;28;20652;-84
2023/02/10 08:30:04;;;;;;;39.47;24.30;;;5.70;99.90;;;;;;5010401;28;20679;-84
2023/02/10 08:32:32;;;;;;;33.40;22.52;;;5.80;99.90;;;;;;5022128;28;20228;-83
2023/02/10 08:34:59;;;;;;;32.50;21.10;;;5.80;99.90;;;;;;5013232;28;20726;-84
2023/02/10 08:37:27;;;;;;;34.72;23.83;;;5.80;99.90;;;;;;5013629;28;20260;-84
2023/02/10 08:39:55;;;;;;;34.42;21.63;;;5.80;99.90;;;;;;5013342;28;20229;-84
2023/02/10 08:42:22;;;;;;;33.35;23.05;;;5.90;99.90;;;;;;5018080;28;20294;-83
2023/02/10 08:44:49;;;;;;;36.10;24.13;;;5.90;99.90;;;;;;5029055;28;20289;-82
2023/02/10 08:47:16;;;;;;;36.58;22.75;;;6.00;99.90;;;;;;5039495;28;20277;-83
2023/02/10 08:49:45;;;;;;;49.83;23.98;;;6.00;99.90;;;;;;5033332;28;20225;-83
2023/02/10 08:52:12;;;;;;;35.97;23.50;;;6.00;99.90;;;;;;5035573;28;20213;-84
2023/02/10 08:54:39;;;;;;;40.20;26.00;;;6.10;99.90;;;;;;5030703;28;20221;-84
2023/02/10 08:57:07;;;;;;;43.63;24.92;;;6.10;99.90;;;;;;5035122;28;20244;-84
2023/02/10 08:59:34;;;;;;;31.55;23.33;;;6.10;99.90;;;;;;5036947;28;20225;-83
2023/02/10 09:02:02;;;;;;;36.17;24.48;;;6.10;99.90;;;;;;5023040;28;20316;-83
2023/02/10 09:04:29;;;;;;;35.00;24.95;;;6.20;99.90;;;;;;5023335;28;20213;-84
2023/02/10 09:07:00;;;;;;;33.20;23.10;;;6.20;99.90;;;;;;5036600;28;20229;-77
2023/02/10 09:09:32;;;;;;;35.30;25.52;;;6.20;99.90;;;;;;5020516;28;20245;-78
2023/02/10 09:11:59;;;;;;;40.38;26.83;;;6.30;99.90;;;;;;5014236;28;20291;-77
2023/02/10 09:14:27;;;;;;;34.65;24.55;;;6.40;99.90;;;;;;5011522;28;20499;-77
2023/02/10 09:16:54;;;;;;;34.78;25.98;;;6.50;99.90;;;;;;5018763;28;20694;-77
2023/02/10 09:19:23;;;;;;;38.13;25.92;;;6.50;99.90;;;;;;5017983;28;20217;-76
2023/02/10 09:21:50;;;;;;;31.35;23.50;;;6.60;99.90;;;;;;5009300;28;20230;-77
2023/02/10 09:24:20;;;;;;;42.33;25.55;;;6.60;99.90;;;;;;5026520;28;20240;-83
2023/02/10 09:26:53;;;;;;;38.88;24.02;;;6.60;99.90;;;;;;5032217;28;20652;-83
2023/02/10 09:29:20;;;;;;;36.47;24.92;;;6.60;99.90;;;;;;5015082;28;20562;-76
2023/02/10 09:31:48;;;;;;;36.70;24.83;;;6.70;99.90;;;;;;5024821;28;20232;-84
2023/02/10 09:34:15;;;;;;;55.03;30.98;;;6.70;99.90;;;;;;5026047;28;20672;-83
2023/02/10 09:36:43;;;;;;;41.55;28.23;;;6.70;99.90;;;;;;5017509;28;20284;-82
2023/02/10 09:39:18;;;;;;;42.97;26.83;;;6.80;99.90;;;;;;5014154;28;20241;-77
2023/02/10 09:41:56;;;;;;;41.83;27.50;;;6.80;99.90;;;;;;5015748;28;20743;-83
2023/02/10 09:44:27;;;;;;;41.78;29.10;;;6.80;99.90;;;;;;5018495;28;20241;-84
2023/02/10 09:47:18;;;;;;;44.67;28.35;;;6.90;99.90;;;;;;5017188;28;20226;-76
2023/02/10 09:50:05;;;;;;;38.83;25.55;;;6.90;99.90;;;;;;5012895;28;20234;-77
2023/02/10 09:52:44;;;;;;;43.80;26.67;;;6.90;99.90;;;;;;5013885;28;20672;-78
2023/02/10 09:55:23;;;;;;;40.90;24.90;;;6.90;99.90;;;;;;5013935;28;20283;-78
2023/02/10 09:57:56;;;;;;;34.60;24.95;;;6.90;99.90;;;;;;5013285;28;20217;-78
2023/02/10 10:00:29;;;;;;;32.42;23.73;;;7.00;99.90;;;;;;5013287;28;20551;-77
2023/02/10 10:02:59;;;;;;;44.53;26.17;;;7.00;99.90;;;;;;5013721;28;20257;-77
2023/02/10 10:05:42;;;;;;;45.25;27.73;;;7.00;99.90;;;;;;5014459;28;20229;-77
2023/02/10 10:08:18;;;;;;;34.05;24.73;;;7.00;99.90;;;;;;5014234;28;20295;-77
2023/02/10 10:10:47;;;;;;;48.33;26.77;;;7.00;99.90;;;;;;5012635;28;20226;-77
2023/02/10 10:13:26;;;;;;;36.10;25.75;;;7.00;99.90;;;;;;5021459;28;20546;-83
2023/02/10 10:16:10;;;;;;;42.42;27.30;;;7.00;99.90;;;;;;5025769;28;20228;-83
2023/02/10 10:18:48;;;;;;;37.13;25.30;;;7.10;99.90;;;;;;5034761;28;20266;-83
2023/02/10 10:21:24;;;;;;;41.88;26.70;;;7.10;99.90;;;;;;5060604;28;20221;-84
2023/02/10 10:24:03;;;;;;;42.83;29.00;;;7.10;99.90;;;;;;5031882;28;20225;-77
2023/02/10 10:26:47;;;;;;;40.20;26.88;;;7.20;99.90;;;;;;5033252;28;20236;-77
2023/02/10 10:29:25;;;;;;;42.90;26.40;;;7.20;99.90;;;;;;5037128;28;20221;-83
2023/02/10 10:32:07;;;;;;;40.35;25.15;;;7.30;99.90;;;;;;5051234;28;20224;-79
2023/02/10 10:34:40;;;;;;;36.88;24.17;;;7.30;99.90;;;;;;5036724;28;20227;-76
2023/02/10 10:37:15;;;;;;;36.60;23.65;;;7.40;99.90;;;;;;5042763;28;20221;-77
2023/02/10 10:39:45;;;;;;;35.88;23.63;;;7.40;99.90;;;;;;5032913;28;20328;-76
2023/02/10 10:42:21;;;;;;;34.80;24.88;;;7.50;99.90;;;;;;5050673;28;20430;-82
2023/02/10 10:44:51;;;;;;;36.00;23.63;;;7.50;99.90;;;;;;5026401;28;20305;-77
2023/02/10 10:47:23;;;;;;;35.53;22.55;;;7.50;99.90;;;;;;5038521;28;20226;-84
2023/02/10 10:49:50;;;;;;;36.05;23.92;;;7.50;99.90;;;;;;5034923;28;20225;-83
2023/02/10 10:52:28;;;;;;;42.03;25.35;;;7.60;99.90;;;;;;5043922;28;20248;-84
2023/02/10 10:54:55;;;;;;;34.95;22.52;;;7.60;99.90;;;;;;5043732;28;20233;-85
2023/02/10 10:57:26;;;;;;;36.40;21.98;;;7.70;99.90;;;;;;5027162;28;20253;-83
2023/02/10 10:59:57;;;;;;;33.88;24.85;;;7.60;99.90;;;;;;5041115;28;20226;-83
2023/02/10 11:02:25;;;;;;;36.75;25.60;;;7.70;99.90;;;;;;5042123;28;20256;-83
2023/02/10 11:05:03;;;;;;;35.70;21.50;;;7.70;99.90;;;;;;5042462;28;20317;-83
2023/02/10 11:07:33;;;;;;;35.25;21.08;;;7.80;99.90;;;;;;5037047;28;20225;-77
2023/02/10 11:10:01;;;;;;;37.72;22.58;;;7.80;99.90;;;;;;5037692;28;20292;-82
2023/02/10 11:12:40;;;;;;;35.08;21.67;;;7.80;99.90;;;;;;5033534;28;20221;-77
2023/02/10 11:15:30;;;;;;;33.10;22.48;;;7.80;99.90;;;;;;5051730;28;20228;-77
2023/02/10 11:17:59;;;;;;;35.05;22.40;;;7.80;99.90;;;;;;5043856;28;20213;-77
2023/02/10 11:20:28;;;;;;;32.92;22.02;;;7.80;99.90;;;;;;5050031;28;20221;-77
2023/02/10 11:23:01;;;;;;;36.17;23.48;;;7.80;99.90;;;;;;5044890;28;20224;-84
2023/02/10 11:25:31;;;;;;;33.70;22.52;;;7.80;99.90;;;;;;5025193;28;20229;-84
2023/02/10 11:28:01;;;;;;;34.38;23.50;;;7.80;99.90;;;;;;5018196;28;20621;-77
2023/02/10 11:30:34;;;;;;;34.78;24.10;;;7.80;99.90;;;;;;5060194;28;20220;-84
2023/02/10 11:33:03;;;;;;;35.42;23.00;;;7.70;99.90;;;;;;5038431;28;20222;-84
2023/02/10 11:35:32;;;;;;;39.33;24.52;;;7.70;99.90;;;;;;5039691;28;20289;-77
2023/02/10 11:38:04;;;;;;;39.42;23.83;;;7.70;99.90;;;;;;5020532;28;20214;-83
2023/02/10 11:40:49;;;;;;;37.40;22.73;;;7.80;99.90;;;;;;5025726;28;20225;-78
2023/02/10 11:43:18;;;;;;;35.17;23.27;;;7.80;99.90;;;;;;5029074;28;20220;-77
2023/02/10 11:45:54;;;;;;;32.85;21.27;;;7.80;99.90;;;;;;5026224;28;20618;-84
2023/02/10 11:48:25;;;;;;;32.28;21.00;;;7.80;99.90;;;;;;5052333;28;20253;-77
2023/02/10 11:51:02;;;;;;;35.03;21.88;;;7.80;99.90;;;;;;5050598;28;20290;-85
2023/02/10 11:53:33;;;;;;;38.15;22.25;;;7.80;99.90;;;;;;5046142;28;20231;-77
2023/02/10 11:56:06;;;;;;;29.67;20.30;;;7.80;99.90;;;;;;5039416;28;20293;-84
2023/02/10 11:58:58;;;;;;;35.05;24.92;;;7.80;99.90;;;;;;5053304;28;20221;-78
2023/02/10 12:01:53;;;;;;;35.90;20.60;;;7.80;99.90;;;;;;5034435;28;20244;-84
2023/02/10 12:05:12;;;;;;;37.95;22.13;;;7.90;99.90;;;;;;5032887;28;20210;-84
2023/02/10 12:07:49;;;;;;;33.90;22.20;;;7.90;99.90;;;;;;5015833;28;20222;-79
2023/02/10 12:10:24;;;;;;;35.67;21.60;;;8.00;99.90;;;;;;5006066;28;20238;-77
2023/02/10 12:12:57;;;;;;;34.70;21.83;;;8.00;99.90;;;;;;5016835;28;20319;-83
2023/02/10 12:15:37;;;;;;;32.60;21.50;;;8.10;99.90;;;;;;5031952;28;20615;-84
2023/02/10 12:18:17;;;;;;;28.23;21.02;;;8.20;99.90;;;;;;5035075;28;20225;-84
2023/02/10 12:20:58;;;;;;;42.30;25.75;;;8.20;99.90;;;;;;5034284;28;20251;-78
2023/02/10 12:23:59;;;;;;;30.95;22.45;;;8.20;99.90;;;;;;5034070;28;20213;-78
2023/02/10 12:26:37;;;;;;;36.97;23.10;;;8.20;99.90;;;;;;5014385;28;20245;-77
2023/02/10 12:29:21;;;;;;;34.97;23.02;;;8.20;99.90;;;;;;5013893;28;20241;-77
2023/02/10 12:31:58;;;;;;;32.05;21.98;;;8.30;99.90;;;;;;5026979;28;20670;-78
2023/02/10 12:34:54;;;;;;;38.35;23.25;;;8.30;99.90;;;;;;5037810;28;20228;-84
2023/02/10 12:37:35;;;;;;;33.45;20.45;;;8.40;99.90;;;;;;5021528;28;20225;-77
2023/02/10 12:40:26;;;;;;;38.10;25.65;;;8.40;99.90;;;;;;5030208;28;20220;-77
2023/02/10 12:43:04;;;;;;;46.55;30.27;;;8.40;99.90;;;;;;5034354;28;20217;-77
2023/02/10 12:45:39;;;;;;;31.45;21.65;;;8.50;99.90;;;;;;5014686;28;20564;-84
2023/02/10 12:48:22;;;;;;;30.27;21.45;;;8.50;99.90;;;;;;5030545;28;20213;-83
2023/02/10 12:51:12;;;;;;;32.50;22.33;;;8.60;99.90;;;;;;5048291;28;20224;-77
2023/02/10 12:53:47;;;;;;;31.35;20.83;;;8.60;99.90;;;;;;5033710;28;20682;-77
2023/02/10 12:56:21;;;;;;;35.10;23.80;;;8.70;99.90;;;;;;5051080;28;20224;-76
2023/02/10 12:58:54;;;;;;;31.83;22.33;;;8.70;99.90;;;;;;5052844;28;20224;-77
2023/02/10 13:01:27;;;;;;;32.58;25.17;;;8.70;99.90;;;;;;5053170;28;20224;-84